Time;durP1;ratioP1;P1;durP2;ratioP2;P2;SDS_P1;SDS_P2;PMS_P1;PMS_P2;Temp;Humidity;BMP_temperature;BMP_pressure;BME280_temperature;BME280_humidity;BME280_pressure;Samples;Min_cycle;Max_cycle;Signal;HPM_P1;HPM_P2
2022/10/05 00:00:43;;;;;;;1.45;0.95;;;;;;;;;;5118766;28;20210;-66
2022/10/05 00:03:12;;;;;;;1.15;1.05;;;;;;;;;;5118739;28;20654;-66
2022/10/05 00:05:40;;;;;;;1.42;0.90;;;;;;;;;;5117747;28;20241;-66
2022/10/05 00:08:12;;;;;;;0.82;0.82;;;;;;;;;;5118317;28;20206;-66
2022/10/05 00:10:41;;;;;;;0.90;0.90;;;;;;;;;;5118783;28;20203;-65
2022/10/05 00:13:12;;;;;;;1.08;1.00;;;;;;;;;;5118439;28;20238;-65
2022/10/05 00:15:40;;;;;;;1.27;1.17;;;;;;;;;;5119416;28;20541;-65
2022/10/05 00:18:14;;;;;;;1.20;1.08;;;;;;;;;;5118895;28;20210;-65
2022/10/05 00:20:42;;;;;;;1.45;1.13;;;;;;;;;;5118281;28;20202;-65
2022/10/05 00:23:14;;;;;;;1.20;1.10;;;;;;;;;;5119284;28;20293;-65
2022/10/05 00:25:43;;;;;;;1.17;1.00;;;;;;;;;;5118162;28;20226;-65
2022/10/05 00:28:16;;;;;;;1.05;0.95;;;;;;;;;;5118282;28;20203;-66
2022/10/05 00:30:43;;;;;;;1.20;1.10;;;;;;;;;;5118762;28;20203;-66
2022/10/05 00:33:13;;;;;;;1.00;1.00;;;;;;;;;;5117597;28;20644;-66
2022/10/05 00:35:41;;;;;;;1.10;1.00;;;;;;;;;;5118736;28;20206;-65
2022/10/05 00:38:09;;;;;;;1.00;1.00;;;;;;;;;;5115892;28;20231;-65
2022/10/05 00:40:41;;;;;;;0.95;0.90;;;;;;;;;;5098006;28;20204;-65
2022/10/05 00:43:15;;;;;;;1.27;1.17;;;;;;;;;;5097814;28;20211;-65
2022/10/05 00:45:45;;;;;;;1.20;1.10;;;;;;;;;;5098323;28;20338;-65
2022/10/05 00:48:19;;;;;;;1.13;1.02;;;;;;;;;;5097298;28;20258;-65
2022/10/05 00:50:56;;;;;;;1.30;0.88;;;;;;;;;;5097870;28;20263;-65
2022/10/05 00:53:31;;;;;;;1.13;1.08;;;;;;;;;;5097916;28;20215;-65
2022/10/05 00:56:03;;;;;;;0.85;0.85;;;;;;;;;;5097803;28;20211;-65
2022/10/05 00:58:35;;;;;;;0.98;0.90;;;;;;;;;;5111305;28;20198;-65
2022/10/05 01:01:06;;;;;;;1.02;1.00;;;;;;;;;;5117903;28;20206;-65
2022/10/05 01:03:39;;;;;;;1.08;1.02;;;;;;;;;;5117847;28;20512;-65
2022/10/05 01:06:14;;;;;;;1.00;1.00;;;;;;;;;;5118351;28;20235;-65
2022/10/05 01:08:48;;;;;;;0.90;0.90;;;;;;;;;;5118387;28;20562;-65
2022/10/05 01:11:19;;;;;;;1.17;1.08;;;;;;;;;;5118104;28;20297;-64
2022/10/05 01:13:52;;;;;;;0.88;0.88;;;;;;;;;;5118071;28;20203;-65
2022/10/05 01:16:25;;;;;;;1.17;1.10;;;;;;;;;;5118354;28;20199;-66
2022/10/05 01:18:56;;;;;;;1.23;1.00;;;;;;;;;;5118134;28;20221;-65
2022/10/05 01:21:24;;;;;;;0.93;0.93;;;;;;;;;;5117931;28;20617;-65
2022/10/05 01:24:07;;;;;;;0.88;0.88;;;;;;;;;;5117985;28;20470;-65
2022/10/05 01:26:43;;;;;;;0.80;0.80;;;;;;;;;;5117479;28;20245;-64
2022/10/05 01:29:18;;;;;;;1.00;1.00;;;;;;;;;;5118066;28;20214;-66
2022/10/05 01:31:49;;;;;;;0.88;0.88;;;;;;;;;;5118130;28;20554;-65
2022/10/05 01:34:21;;;;;;;1.20;1.10;;;;;;;;;;5118362;28;20639;-66
2022/10/05 01:36:53;;;;;;;0.90;0.90;;;;;;;;;;5138497;28;20310;-66
2022/10/05 01:39:24;;;;;;;1.00;0.85;;;;;;;;;;5138617;28;20209;-66
2022/10/05 01:41:56;;;;;;;0.98;0.98;;;;;;;;;;5138767;28;20231;-65
2022/10/05 01:44:27;;;;;;;0.90;0.90;;;;;;;;;;5138373;28;20531;-64
2022/10/05 01:46:57;;;;;;;1.00;1.00;;;;;;;;;;5138277;28;20570;-65
2022/10/05 01:49:32;;;;;;;1.27;1.17;;;;;;;;;;5138344;28;20652;-65
2022/10/05 01:52:05;;;;;;;1.00;1.00;;;;;;;;;;5140913;27;20197;-66
2022/10/05 01:54:37;;;;;;;0.93;0.93;;;;;;;;;;5142148;27;20202;-65
2022/10/05 01:57:08;;;;;;;1.10;1.00;;;;;;;;;;5142324;27;20263;-66
2022/10/05 01:59:44;;;;;;;1.10;1.00;;;;;;;;;;5142086;27;20253;-65
2022/10/05 02:02:13;;;;;;;0.90;0.90;;;;;;;;;;5142432;27;20289;-65
2022/10/05 02:04:45;;;;;;;0.90;0.90;;;;;;;;;;5141437;27;20266;-65
2022/10/05 02:07:14;;;;;;;1.27;1.17;;;;;;;;;;5141913;27;20489;-65
2022/10/05 02:09:46;;;;;;;0.80;0.80;;;;;;;;;;5142114;27;20301;-65
2022/10/05 02:12:16;;;;;;;0.88;0.88;;;;;;;;;;5142745;27;20202;-65
2022/10/05 02:14:48;;;;;;;1.00;1.00;;;;;;;;;;5141578;27;20210;-65
2022/10/05 02:17:18;;;;;;;1.23;1.02;;;;;;;;;;5141678;27;20198;-65
2022/10/05 02:19:49;;;;;;;1.00;0.93;;;;;;;;;;5141211;27;20597;-65
2022/10/05 02:22:18;;;;;;;0.90;0.90;;;;;;;;;;5141523;27;20206;-65
2022/10/05 02:24:49;;;;;;;1.08;1.00;;;;;;;;;;5140378;27;20198;-65
2022/10/05 02:27:20;;;;;;;1.13;1.08;;;;;;;;;;5141675;27;20236;-65
2022/10/05 02:29:49;;;;;;;0.85;0.85;;;;;;;;;;5141504;27;20257;-65
2022/10/05 02:32:22;;;;;;;1.17;1.08;;;;;;;;;;5141820;27;20214;-65
2022/10/05 02:34:50;;;;;;;0.80;0.80;;;;;;;;;;5141577;27;20206;-65
2022/10/05 02:37:22;;;;;;;1.02;0.95;;;;;;;;;;5141591;27;20208;-65
2022/10/05 02:39:58;;;;;;;1.20;1.00;;;;;;;;;;5140640;27;20210;-65
2022/10/05 02:42:29;;;;;;;1.10;1.00;;;;;;;;;;5140561;27;20202;-65
2022/10/05 02:45:03;;;;;;;0.80;0.80;;;;;;;;;;5140348;27;20218;-65
2022/10/05 02:47:33;;;;;;;1.13;1.00;;;;;;;;;;5140747;27;20200;-65
2022/10/05 02:50:04;;;;;;;1.10;1.00;;;;;;;;;;5141220;27;20206;-65
2022/10/05 02:52:37;;;;;;;0.70;0.70;;;;;;;;;;5140883;27;20527;-65
2022/10/05 02:55:11;;;;;;;1.00;0.98;;;;;;;;;;5140866;27;20199;-65
2022/10/05 02:57:40;;;;;;;1.30;1.20;;;;;;;;;;5140988;27;20530;-65
2022/10/05 03:00:11;;;;;;;1.20;0.95;;;;;;;;;;5140901;27;20525;-65
2022/10/05 03:02:42;;;;;;;0.90;0.90;;;;;;;;;;5140105;27;20206;-65
2022/10/05 03:05:14;;;;;;;0.80;0.80;;;;;;;;;;5140605;27;20234;-65
2022/10/05 03:07:44;;;;;;;0.93;0.93;;;;;;;;;;5140310;27;20198;-65
2022/10/05 03:10:14;;;;;;;0.90;0.90;;;;;;;;;;5140180;27;20297;-65
2022/10/05 03:12:48;;;;;;;0.88;0.88;;;;;;;;;;5140611;27;20202;-65
2022/10/05 03:15:25;;;;;;;0.90;0.90;;;;;;;;;;5121965;27;20199;-64
2022/10/05 03:17:57;;;;;;;0.95;0.93;;;;;;;;;;5119954;28;20213;-65
2022/10/05 03:20:32;;;;;;;0.95;0.95;;;;;;;;;;5119990;28;20202;-65
2022/10/05 03:23:01;;;;;;;1.10;1.00;;;;;;;;;;5120036;28;20202;-65
2022/10/05 03:25:37;;;;;;;0.88;0.88;;;;;;;;;;5119397;28;20207;-65
2022/10/05 03:28:07;;;;;;;0.90;0.90;;;;;;;;;;5119455;28;20202;-64
2022/10/05 03:30:40;;;;;;;0.98;0.98;;;;;;;;;;5139552;27;20206;-65
2022/10/05 03:33:12;;;;;;;0.90;0.90;;;;;;;;;;5139595;27;20245;-69
2022/10/05 03:35:47;;;;;;;0.93;0.93;;;;;;;;;;5140054;27;20496;-65
2022/10/05 03:38:19;;;;;;;1.00;1.00;;;;;;;;;;5139582;27;20194;-65
2022/10/05 03:40:51;;;;;;;0.90;0.90;;;;;;;;;;5132534;27;20214;-65
2022/10/05 03:43:24;;;;;;;0.90;0.90;;;;;;;;;;5139805;27;20212;-65
2022/10/05 03:45:59;;;;;;;0.90;0.90;;;;;;;;;;5139150;27;20261;-65
2022/10/05 03:48:30;;;;;;;0.90;0.90;;;;;;;;;;5139371;27;20252;-65
2022/10/05 03:51:02;;;;;;;0.88;0.88;;;;;;;;;;5139668;27;20297;-65
2022/10/05 03:53:32;;;;;;;0.90;0.90;;;;;;;;;;5139533;27;20212;-65
2022/10/05 03:56:01;;;;;;;1.13;1.02;;;;;;;;;;5135080;27;20477;-65
2022/10/05 03:58:30;;;;;;;0.93;0.90;;;;;;;;;;5118608;28;20218;-65
2022/10/05 04:01:01;;;;;;;1.00;1.00;;;;;;;;;;5118773;28;20203;-65
2022/10/05 04:03:31;;;;;;;0.90;0.90;;;;;;;;;;5118568;28;20590;-65
2022/10/05 04:06:02;;;;;;;0.90;0.90;;;;;;;;;;5133683;27;20236;-66
2022/10/05 04:08:33;;;;;;;1.05;1.05;;;;;;;;;;5138977;27;20252;-65
2022/10/05 04:11:03;;;;;;;0.77;0.77;;;;;;;;;;5139222;27;20202;-65
2022/10/05 04:13:33;;;;;;;0.90;0.90;;;;;;;;;;5138568;27;20245;-65
2022/10/05 04:16:04;;;;;;;1.00;0.95;;;;;;;;;;5138802;27;20198;-65
2022/10/05 04:18:34;;;;;;;1.00;1.00;;;;;;;;;;5138792;27;20202;-65
2022/10/05 04:21:05;;;;;;;0.95;0.95;;;;;;;;;;5138021;27;20307;-65
2022/10/05 04:23:40;;;;;;;0.93;0.82;;;;;;;;;;5138496;27;20198;-65
2022/10/05 04:26:11;;;;;;;1.27;1.17;;;;;;;;;;5137099;27;20695;-65
2022/10/05 04:28:43;;;;;;;0.80;0.80;;;;;;;;;;5138368;27;20377;-65
2022/10/05 04:31:15;;;;;;;0.80;0.80;;;;;;;;;;5138778;27;20206;-64
2022/10/05 04:33:44;;;;;;;0.95;0.95;;;;;;;;;;5137873;27;20202;-65
2022/10/05 04:36:18;;;;;;;0.98;0.98;;;;;;;;;;5137263;27;20221;-65
2022/10/05 04:38:53;;;;;;;0.90;0.90;;;;;;;;;;5137994;27;20202;-65
2022/10/05 04:41:35;;;;;;;1.25;0.95;;;;;;;;;;5137257;27;20202;-65
2022/10/05 04:44:12;;;;;;;1.08;1.00;;;;;;;;;;5137576;27;20274;-65
2022/10/05 04:46:48;;;;;;;1.20;1.10;;;;;;;;;;5137003;27;20234;-65
2022/10/05 04:49:25;;;;;;;0.80;0.80;;;;;;;;;;5137247;27;20237;-65
2022/10/05 04:51:56;;;;;;;1.02;0.93;;;;;;;;;;5136795;27;20202;-65
2022/10/05 04:54:30;;;;;;;0.93;0.90;;;;;;;;;;5135316;27;20233;-65
2022/10/05 04:57:00;;;;;;;0.90;0.90;;;;;;;;;;5130245;27;20200;-65
2022/10/05 04:59:44;;;;;;;1.20;1.10;;;;;;;;;;5136887;27;20267;-65
2022/10/05 05:02:17;;;;;;;1.05;1.05;;;;;;;;;;5136496;27;20599;-65
2022/10/05 05:05:01;;;;;;;0.95;0.93;;;;;;;;;;5124189;28;20321;-65
2022/10/05 05:07:34;;;;;;;0.82;0.82;;;;;;;;;;5116182;28;20262;-64
2022/10/05 05:10:23;;;;;;;1.00;1.00;;;;;;;;;;5115642;28;20299;-65
2022/10/05 05:12:56;;;;;;;1.00;1.00;;;;;;;;;;5081875;28;20743;-65
2022/10/05 05:15:29;;;;;;;1.10;1.00;;;;;;;;;;5115044;28;20203;-65
2022/10/05 05:18:05;;;;;;;0.95;0.95;;;;;;;;;;5115451;28;20669;-65
2022/10/05 05:20:39;;;;;;;0.80;0.80;;;;;;;;;;5114802;28;20202;-65
2022/10/05 05:23:11;;;;;;;0.90;0.90;;;;;;;;;;5114680;28;20297;-65
2022/10/05 05:25:43;;;;;;;1.00;1.00;;;;;;;;;;5114318;28;20231;-65
2022/10/05 05:28:19;;;;;;;1.00;1.00;;;;;;;;;;5118927;28;20266;-65
2022/10/05 05:30:50;;;;;;;1.00;0.90;;;;;;;;;;5118012;27;20605;-65
2022/10/05 05:33:22;;;;;;;1.10;1.02;;;;;;;;;;5119603;28;20297;-65
2022/10/05 05:36:04;;;;;;;0.98;0.98;;;;;;;;;;5118894;28;20590;-65
2022/10/05 05:38:34;;;;;;;1.00;1.00;;;;;;;;;;5118573;28;20302;-66
2022/10/05 05:41:08;;;;;;;0.90;0.90;;;;;;;;;;5117583;28;20293;-65
2022/10/05 05:43:41;;;;;;;1.10;1.10;;;;;;;;;;5119467;28;20207;-65
2022/10/05 05:46:11;;;;;;;1.00;1.00;;;;;;;;;;5118682;28;20251;-65
2022/10/05 05:48:41;;;;;;;1.42;1.10;;;;;;;;;;5109438;28;20298;-65
2022/10/05 05:51:10;;;;;;;1.13;1.00;;;;;;;;;;5118692;28;20576;-66
2022/10/05 05:53:41;;;;;;;1.80;1.38;;;;;;;;;;5118284;28;20285;-66
2022/10/05 05:56:11;;;;;;;1.27;1.13;;;;;;;;;;5117877;28;20665;-65
2022/10/05 05:58:42;;;;;;;2.42;1.70;;;;;;;;;;5118692;28;20258;-65
2022/10/05 06:01:12;;;;;;;1.80;1.40;;;;;;;;;;5118424;28;20203;-65
2022/10/05 06:03:44;;;;;;;3.35;1.70;;;;;;;;;;5119132;28;20231;-65
2022/10/05 06:06:12;;;;;;;3.77;1.83;;;;;;;;;;5119151;28;20293;-66
2022/10/05 06:08:41;;;;;;;4.03;1.80;;;;;;;;;;5118534;28;20231;-66
2022/10/05 06:11:12;;;;;;;4.10;2.10;;;;;;;;;;5117760;28;20245;-65
2022/10/05 06:13:41;;;;;;;4.05;1.90;;;;;;;;;;5118607;28;20206;-66
2022/10/05 06:16:12;;;;;;;3.03;2.38;;;;;;;;;;5118708;28;20199;-65
2022/10/05 06:18:44;;;;;;;7.82;2.22;;;;;;;;;;5119328;28;20226;-65
2022/10/05 06:21:16;;;;;;;4.25;2.22;;;;;;;;;;5118351;28;20301;-65
2022/10/05 06:23:46;;;;;;;5.75;2.40;;;;;;;;;;5118271;28;20221;-66
2022/10/05 06:26:22;;;;;;;6.28;2.83;;;;;;;;;;5118765;28;20210;-65
2022/10/05 06:28:52;;;;;;;6.30;2.72;;;;;;;;;;5118576;28;20203;-65
2022/10/05 06:31:25;;;;;;;5.53;2.72;;;;;;;;;;5118886;28;20213;-65
2022/10/05 06:33:55;;;;;;;5.85;2.97;;;;;;;;;;5118665;28;20202;-66
2022/10/05 06:36:35;;;;;;;7.22;3.25;;;;;;;;;;5117901;28;20203;-65
2022/10/05 06:39:29;;;;;;;9.30;3.50;;;;;;;;;;5117822;28;20282;-65
2022/10/05 06:42:04;;;;;;;5.93;3.10;;;;;;;;;;5062413;28;20222;-64
2022/10/05 06:44:34;;;;;;;7.57;3.50;;;;;;;;;;5098085;28;20261;-65
2022/10/05 06:47:06;;;;;;;7.07;2.85;;;;;;;;;;5098022;28;20223;-65
2022/10/05 06:49:41;;;;;;;7.45;3.28;;;;;;;;;;5098169;28;20251;-65
2022/10/05 06:52:14;;;;;;;6.28;3.30;;;;;;;;;;5098311;28;20238;-66
2022/10/05 06:54:49;;;;;;;7.30;3.25;;;;;;;;;;5097384;28;20239;-66
2022/10/05 06:57:26;;;;;;;5.63;3.10;;;;;;;;;;5097398;28;20595;-65
2022/10/05 06:59:56;;;;;;;5.45;3.13;;;;;;;;;;5097665;28;20290;-65
2022/10/05 07:02:26;;;;;;;9.00;3.45;;;;;;;;;;5097755;28;20261;-65
2022/10/05 07:05:02;;;;;;;6.05;2.90;;;;;;;;;;5097752;28;20243;-65
2022/10/05 07:07:33;;;;;;;5.22;2.92;;;;;;;;;;5114225;28;20219;-65
2022/10/05 07:10:06;;;;;;;5.22;2.72;;;;;;;;;;5117243;28;20789;-66
2022/10/05 07:12:41;;;;;;;5.10;2.90;;;;;;;;;;5117838;28;20236;-65
2022/10/05 07:15:20;;;;;;;6.20;3.42;;;;;;;;;;5117621;28;20195;-65
2022/10/05 07:17:54;;;;;;;6.53;3.13;;;;;;;;;;5116970;28;20207;-64
2022/10/05 07:20:29;;;;;;;7.03;3.40;;;;;;;;;;5117101;28;20198;-66
2022/10/05 07:23:04;;;;;;;5.95;3.22;;;;;;;;;;5117119;28;20246;-65
2022/10/05 07:25:35;;;;;;;5.95;3.08;;;;;;;;;;5118172;28;20238;-65
2022/10/05 07:28:06;;;;;;;5.30;3.00;;;;;;;;;;5117304;28;20223;-65
2022/10/05 07:30:40;;;;;;;7.40;3.47;;;;;;;;;;5117147;28;20740;-64
2022/10/05 07:33:13;;;;;;;6.43;3.30;;;;;;;;;;5116310;28;20582;-66
2022/10/05 07:38:32;;;;;;;5.95;3.10;;;;;;;;;;5116849;28;20336;-65
2022/10/05 07:41:01;;;;;;;4.15;2.90;;;;;;;;;;5117196;28;20519;-67
2022/10/05 07:43:32;;;;;;;6.05;3.15;;;;;;;;;;5116744;28;20291;-65
2022/10/05 07:46:06;;;;;;;4.15;2.92;;;;;;;;;;5116864;28;20226;-64
2022/10/05 07:48:38;;;;;;;4.78;2.90;;;;;;;;;;5115692;28;20724;-65
2022/10/05 07:51:12;;;;;;;5.78;2.92;;;;;;;;;;5116846;28;20210;-64
2022/10/05 07:53:41;;;;;;;3.45;2.38;;;;;;;;;;5116053;28;20211;-64
2022/10/05 07:56:12;;;;;;;3.25;2.55;;;;;;;;;;5115655;28;20254;-64
2022/10/05 07:58:44;;;;;;;4.47;3.03;;;;;;;;;;5116044;28;20199;-66
2022/10/05 08:01:15;;;;;;;4.57;2.90;;;;;;;;;;5116231;28;20199;-66
2022/10/05 08:03:52;;;;;;;4.10;2.90;;;;;;;;;;5119693;27;20238;-65
2022/10/05 08:06:33;;;;;;;5.90;3.13;;;;;;;;;;5137276;27;20205;-66
2022/10/05 08:09:04;;;;;;;4.47;3.10;;;;;;;;;;5137317;27;20363;-65
2022/10/05 08:11:34;;;;;;;5.07;2.65;;;;;;;;;;5137234;27;20198;-65
2022/10/05 08:14:06;;;;;;;3.75;2.67;;;;;;;;;;5137624;27;20241;-66
2022/10/05 08:16:36;;;;;;;6.18;2.80;;;;;;;;;;5137348;27;20312;-65
2022/10/05 08:19:07;;;;;;;3.67;2.42;;;;;;;;;;5137851;27;20296;-65
2022/10/05 08:21:39;;;;;;;5.50;3.13;;;;;;;;;;5136425;27;20293;-65
2022/10/05 08:24:07;;;;;;;3.70;2.45;;;;;;;;;;5136171;27;20284;-65
2022/10/05 08:26:37;;;;;;;5.93;2.70;;;;;;;;;;5136940;27;20261;-65
2022/10/05 08:29:11;;;;;;;4.75;2.72;;;;;;;;;;5136920;27;20318;-65
2022/10/05 08:31:40;;;;;;;3.60;2.50;;;;;;;;;;5134414;27;20217;-66
2022/10/05 08:34:21;;;;;;;3.45;2.53;;;;;;;;;;5136232;27;20213;-65
2022/10/05 08:36:54;;;;;;;4.45;2.60;;;;;;;;;;5136709;27;20544;-66
2022/10/05 08:39:23;;;;;;;2.92;2.53;;;;;;;;;;5136446;27;20547;-66
2022/10/05 08:42:23;;;;;;;3.80;2.50;;;;;;;;;;5136167;27;20627;-66
2022/10/05 08:45:02;;;;;;;3.60;2.40;;;;;;;;;;5136386;27;20263;-65
2022/10/05 08:47:49;;;;;;;3.55;2.63;;;;;;;;;;5135926;27;20257;-66
2022/10/05 08:50:25;;;;;;;2.90;2.42;;;;;;;;;;5135709;27;20226;-65
2022/10/05 08:53:13;;;;;;;3.78;2.45;;;;;;;;;;5136359;27;20204;-65
2022/10/05 08:55:47;;;;;;;3.58;2.25;;;;;;;;;;5128580;27;20198;-65
2022/10/05 08:58:30;;;;;;;2.95;2.47;;;;;;;;;;5135705;27;20185;-66
2022/10/05 09:01:02;;;;;;;3.67;2.42;;;;;;;;;;5135382;27;20265;-65
2022/10/05 09:03:39;;;;;;;3.03;2.40;;;;;;;;;;5135744;27;20577;-65
2022/10/05 09:06:22;;;;;;;3.78;2.50;;;;;;;;;;5136295;28;20202;-67
2022/10/05 09:09:02;;;;;;;3.70;2.50;;;;;;;;;;5135672;28;20696;-65
2022/10/05 09:11:35;;;;;;;3.20;2.60;;;;;;;;;;5136222;28;20198;-65
2022/10/05 09:14:27;;;;;;;3.95;2.53;;;;;;;;;;5136522;28;20623;-65
2022/10/05 09:17:12;;;;;;;5.25;2.40;;;;;;;;;;5135580;28;20202;-65
2022/10/05 09:19:57;;;;;;;4.25;2.80;;;;;;;;;;5135645;28;20286;-65
2022/10/05 09:22:34;;;;;;;3.50;2.45;;;;;;;;;;5133809;28;20306;-66
2022/10/05 09:25:09;;;;;;;3.25;2.33;;;;;;;;;;5114747;28;20195;-65
2022/10/05 09:27:39;;;;;;;3.70;2.42;;;;;;;;;;5115104;28;20276;-65
2022/10/05 09:30:22;;;;;;;3.97;2.40;;;;;;;;;;5115360;28;20199;-65
2022/10/05 09:33:04;;;;;;;2.53;2.15;;;;;;;;;;5098934;28;20210;-65
2022/10/05 09:35:56;;;;;;;2.70;2.45;;;;;;;;;;5092332;28;20210;-67
2022/10/05 09:38:31;;;;;;;2.65;2.30;;;;;;;;;;5115123;28;20199;-65
2022/10/05 09:41:22;;;;;;;3.35;2.47;;;;;;;;;;5115170;28;20206;-65
2022/10/05 09:44:07;;;;;;;2.55;2.35;;;;;;;;;;5094407;28;20690;-65
2022/10/05 09:46:48;;;;;;;3.83;2.40;;;;;;;;;;5114170;28;20306;-65
2022/10/05 09:49:40;;;;;;;2.95;2.50;;;;;;;;;;5114405;28;20714;-65
2022/10/05 09:52:20;;;;;;;3.17;2.28;;;;;;;;;;5133660;28;20198;-65
2022/10/05 09:55:14;;;;;;;3.25;2.42;;;;;;;;;;5135551;28;20202;-65
2022/10/05 09:57:56;;;;;;;2.65;2.25;;;;;;;;;;5087386;28;20293;-65
2022/10/05 10:00:28;;;;;;;2.60;2.20;;;;;;;;;;5134898;28;20199;-65
2022/10/05 10:03:09;;;;;;;3.20;2.10;;;;;;;;;;5134147;28;20237;-65
2022/10/05 10:05:54;;;;;;;3.83;2.30;;;;;;;;;;5135163;28;20653;-65
2022/10/05 10:08:27;;;;;;;3.15;2.20;;;;;;;;;;5134749;28;20265;-66
2022/10/05 10:11:02;;;;;;;2.85;2.08;;;;;;;;;;5135123;27;20313;-65
2022/10/05 10:13:45;;;;;;;2.60;2.22;;;;;;;;;;5136134;27;20233;-67
2022/10/05 10:16:20;;;;;;;2.65;1.90;;;;;;;;;;5132472;27;20210;-65
2022/10/05 10:19:02;;;;;;;2.03;1.77;;;;;;;;;;5137602;27;20712;-65
2022/10/05 10:21:51;;;;;;;2.65;2.20;;;;;;;;;;5083921;27;20625;-65
2022/10/05 10:24:28;;;;;;;2.10;1.90;;;;;;;;;;5071348;28;20294;-65
2022/10/05 10:27:11;;;;;;;3.08;2.30;;;;;;;;;;5096825;28;20316;-66
2022/10/05 10:29:45;;;;;;;2.83;2.00;;;;;;;;;;5096862;28;20223;-67
2022/10/05 10:32:20;;;;;;;2.45;2.25;;;;;;;;;;5097797;28;20264;-66
2022/10/05 10:35:03;;;;;;;2.30;2.05;;;;;;;;;;5096254;28;20293;-65
2022/10/05 10:37:59;;;;;;;1.98;1.77;;;;;;;;;;5094707;28;20218;-65
2022/10/05 10:40:33;;;;;;;2.30;2.10;;;;;;;;;;5096623;28;20235;-65
2022/10/05 10:43:20;;;;;;;2.47;2.28;;;;;;;;;;5096547;28;20211;-67
2022/10/05 10:45:50;;;;;;;2.30;2.03;;;;;;;;;;5120390;27;20633;-64
2022/10/05 10:48:32;;;;;;;2.20;2.00;;;;;;;;;;5136634;27;20257;-65
2022/10/05 10:51:12;;;;;;;2.28;1.90;;;;;;;;;;5136921;27;20487;-65
2022/10/05 10:54:11;;;;;;;2.55;2.10;;;;;;;;;;5137411;27;20259;-66
2022/10/05 10:56:47;;;;;;;2.65;2.00;;;;;;;;;;5138090;27;20302;-66
2022/10/05 10:59:41;;;;;;;2.38;1.90;;;;;;;;;;5137187;27;20293;-64
2022/10/05 11:02:18;;;;;;;2.55;1.77;;;;;;;;;;5136888;27;20201;-65
2022/10/05 11:04:56;;;;;;;1.95;1.75;;;;;;;;;;5137208;27;20488;-66
2022/10/05 11:07:33;;;;;;;2.20;2.00;;;;;;;;;;5137828;27;20593;-65
2022/10/05 11:10:18;;;;;;;2.33;1.90;;;;;;;;;;5136900;27;20313;-66
2022/10/05 11:13:04;;;;;;;2.35;2.05;;;;;;;;;;5130951;27;20691;-66
2022/10/05 11:15:51;;;;;;;2.55;1.92;;;;;;;;;;5137306;27;20251;-64
2022/10/05 11:18:20;;;;;;;2.33;1.90;;;;;;;;;;5137066;27;20312;-66
2022/10/05 11:21:06;;;;;;;2.20;2.00;;;;;;;;;;5137034;27;20297;-65
2022/10/05 11:23:49;;;;;;;1.83;1.73;;;;;;;;;;5136202;27;20206;-65
2022/10/05 11:26:32;;;;;;;2.25;1.80;;;;;;;;;;5136713;27;20202;-65
2022/10/05 11:29:08;;;;;;;1.70;1.60;;;;;;;;;;5137152;27;20217;-65
2022/10/05 11:31:57;;;;;;;2.38;1.80;;;;;;;;;;5135775;27;20252;-65
2022/10/05 11:34:43;;;;;;;2.10;1.90;;;;;;;;;;5127967;27;20198;-65
2022/10/05 11:37:25;;;;;;;1.85;1.75;;;;;;;;;;5135900;27;20296;-65
2022/10/05 11:40:08;;;;;;;2.25;2.05;;;;;;;;;;5080938;27;20212;-65
2022/10/05 11:42:59;;;;;;;2.05;1.85;;;;;;;;;;5135902;27;20213;-65
2022/10/05 11:45:27;;;;;;;2.00;1.80;;;;;;;;;;5110069;27;20287;-65
2022/10/05 11:48:11;;;;;;;2.15;1.80;;;;;;;;;;5135525;27;20237;-66
2022/10/05 11:50:40;;;;;;;2.45;1.90;;;;;;;;;;5135774;27;20202;-65
2022/10/05 11:53:14;;;;;;;1.85;1.75;;;;;;;;;;5135969;27;20202;-65
2022/10/05 11:55:46;;;;;;;1.83;1.63;;;;;;;;;;5136554;27;20203;-65
2022/10/05 11:58:16;;;;;;;2.08;1.90;;;;;;;;;;5136265;27;20248;-65
2022/10/05 12:00:45;;;;;;;2.00;1.80;;;;;;;;;;5136693;27;20362;-65
2022/10/05 12:03:26;;;;;;;1.88;1.70;;;;;;;;;;5135388;27;20259;-65
2022/10/05 12:05:58;;;;;;;2.08;1.77;;;;;;;;;;5135211;27;20237;-66
2022/10/05 12:08:29;;;;;;;2.13;1.85;;;;;;;;;;5134991;27;20287;-65
2022/10/05 12:11:03;;;;;;;1.70;1.60;;;;;;;;;;5135793;27;20697;-65
2022/10/05 12:13:34;;;;;;;1.77;1.67;;;;;;;;;;5136338;27;20210;-65
2022/10/05 12:16:06;;;;;;;2.00;1.90;;;;;;;;;;5135844;27;20249;-65
2022/10/05 12:18:46;;;;;;;2.08;1.85;;;;;;;;;;5136161;27;20721;-65
2022/10/05 12:21:17;;;;;;;1.92;1.70;;;;;;;;;;5135859;27;20294;-65
2022/10/05 12:23:47;;;;;;;2.15;1.60;;;;;;;;;;5136076;27;20226;-65
2022/10/05 12:26:17;;;;;;;2.10;1.75;;;;;;;;;;5135000;27;20199;-65
2022/10/05 12:28:47;;;;;;;2.10;1.80;;;;;;;;;;5135021;27;20265;-65
2022/10/05 12:31:18;;;;;;;1.80;1.70;;;;;;;;;;5135116;27;20249;-65
2022/10/05 12:33:51;;;;;;;1.75;1.65;;;;;;;;;;5135360;27;20669;-65
2022/10/05 12:36:22;;;;;;;1.98;1.88;;;;;;;;;;5133184;27;20233;-65
2022/10/05 12:38:54;;;;;;;2.08;1.88;;;;;;;;;;5134829;27;20198;-65
2022/10/05 12:41:28;;;;;;;1.58;1.48;;;;;;;;;;5135241;27;20209;-65
2022/10/05 12:44:02;;;;;;;1.85;1.75;;;;;;;;;;5124938;27;20206;-65
2022/10/05 12:46:35;;;;;;;1.92;1.83;;;;;;;;;;5113835;28;20221;-65
2022/10/05 12:49:14;;;;;;;1.80;1.70;;;;;;;;;;5114034;28;20479;-65
2022/10/05 12:51:44;;;;;;;1.75;1.65;;;;;;;;;;5113650;28;20230;-65
2022/10/05 12:54:18;;;;;;;1.90;1.70;;;;;;;;;;5126526;27;20274;-65
2022/10/05 12:56:50;;;;;;;1.73;1.63;;;;;;;;;;5134341;27;20202;-65
2022/10/05 12:59:21;;;;;;;1.55;1.45;;;;;;;;;;5134235;28;20708;-65
2022/10/05 13:01:53;;;;;;;2.05;1.85;;;;;;;;;;5133323;27;20233;-65
2022/10/05 13:04:25;;;;;;;1.60;1.50;;;;;;;;;;5134436;27;20230;-65
2022/10/05 13:07:05;;;;;;;1.70;1.60;;;;;;;;;;5134345;27;20259;-65
2022/10/05 13:09:37;;;;;;;1.92;1.45;;;;;;;;;;5134155;27;20218;-65
2022/10/05 13:12:08;;;;;;;3.03;1.90;;;;;;;;;;5133522;28;20241;-65
2022/10/05 13:14:44;;;;;;;1.80;1.70;;;;;;;;;;5134440;28;20597;-65
2022/10/05 13:17:18;;;;;;;1.60;1.50;;;;;;;;;;5133992;27;20198;-65
2022/10/05 13:19:47;;;;;;;1.85;1.75;;;;;;;;;;5134095;27;20197;-65
2022/10/05 13:22:22;;;;;;;2.05;1.63;;;;;;;;;;5133769;28;20202;-65
2022/10/05 13:24:58;;;;;;;1.90;1.80;;;;;;;;;;5133795;27;20201;-65
2022/10/05 13:27:28;;;;;;;1.70;1.60;;;;;;;;;;5134467;27;20205;-65
2022/10/05 13:29:59;;;;;;;1.88;1.77;;;;;;;;;;5133515;27;20210;-67
2022/10/05 13:32:28;;;;;;;1.90;1.80;;;;;;;;;;5134141;28;20202;-66
2022/10/05 13:35:00;;;;;;;2.13;1.90;;;;;;;;;;5134001;28;20220;-65
2022/10/05 13:37:31;;;;;;;1.80;1.70;;;;;;;;;;5134547;28;20279;-65
2022/10/05 13:40:07;;;;;;;1.85;1.75;;;;;;;;;;5133589;28;20526;-66
2022/10/05 13:42:41;;;;;;;2.00;1.90;;;;;;;;;;5133949;28;20212;-65
2022/10/05 13:45:13;;;;;;;1.58;1.48;;;;;;;;;;5134149;28;20296;-65
2022/10/05 13:47:48;;;;;;;1.90;1.52;;;;;;;;;;5136402;27;20222;-65
2022/10/05 13:50:18;;;;;;;1.90;1.80;;;;;;;;;;5137850;27;20260;-65
2022/10/05 13:52:52;;;;;;;2.00;1.75;;;;;;;;;;5138873;27;20297;-66
2022/10/05 13:55:23;;;;;;;1.80;1.70;;;;;;;;;;5138470;27;20261;-65
2022/10/05 13:57:56;;;;;;;1.80;1.70;;;;;;;;;;5138492;27;20238;-65
2022/10/05 14:00:24;;;;;;;2.30;2.10;;;;;;;;;;5136803;27;20194;-65
2022/10/05 14:02:53;;;;;;;1.75;1.65;;;;;;;;;;5138412;27;20202;-65
2022/10/05 14:05:21;;;;;;;1.83;1.73;;;;;;;;;;5138720;27;20233;-65
2022/10/05 14:07:50;;;;;;;1.90;1.80;;;;;;;;;;5137239;27;20238;-65
2022/10/05 14:10:32;;;;;;;1.92;1.83;;;;;;;;;;5136432;27;20253;-65
2022/10/05 14:13:01;;;;;;;1.80;1.70;;;;;;;;;;5137703;27;20557;-66
2022/10/05 14:15:31;;;;;;;2.10;2.00;;;;;;;;;;5136256;27;20230;-65
2022/10/05 14:17:58;;;;;;;2.63;2.03;;;;;;;;;;5137192;27;20203;-66
2022/10/05 14:20:27;;;;;;;1.70;1.60;;;;;;;;;;5137103;27;20203;-65
2022/10/05 14:22:57;;;;;;;2.03;1.83;;;;;;;;;;5137288;27;20194;-65
2022/10/05 14:25:24;;;;;;;2.20;1.88;;;;;;;;;;5136796;27;20237;-65
2022/10/05 14:28:00;;;;;;;1.90;1.80;;;;;;;;;;5136921;27;20689;-65
2022/10/05 14:30:29;;;;;;;1.80;1.67;;;;;;;;;;5134833;27;20222;-65
2022/10/05 14:32:59;;;;;;;2.13;1.92;;;;;;;;;;5136416;27;20202;-65
2022/10/05 14:35:29;;;;;;;2.42;2.13;;;;;;;;;;5137069;27;20478;-65
2022/10/05 14:37:58;;;;;;;2.40;2.10;;;;;;;;;;5137049;27;20324;-65
2022/10/05 14:40:30;;;;;;;2.25;2.15;;;;;;;;;;5137249;27;20197;-65
2022/10/05 14:42:58;;;;;;;2.17;1.95;;;;;;;;;;5136386;27;20241;-65
2022/10/05 14:45:28;;;;;;;2.08;1.98;;;;;;;;;;5137409;27;20210;-65
2022/10/05 14:48:04;;;;;;;2.10;2.00;;;;;;;;;;5136784;27;20207;-65
2022/10/05 14:50:33;;;;;;;1.88;1.70;;;;;;;;;;5137207;27;20243;-65
2022/10/05 14:53:04;;;;;;;3.20;1.95;;;;;;;;;;5136001;27;20205;-65
2022/10/05 14:55:40;;;;;;;2.15;1.95;;;;;;;;;;5136972;27;20205;-65
2022/10/05 14:58:15;;;;;;;2.03;1.92;;;;;;;;;;5135123;27;20189;-66
2022/10/05 15:00:49;;;;;;;2.42;2.05;;;;;;;;;;5136976;27;20198;-65
2022/10/05 15:03:35;;;;;;;1.98;1.83;;;;;;;;;;5137019;27;20209;-65
2022/10/05 15:06:03;;;;;;;2.10;2.00;;;;;;;;;;5137310;27;20202;-65
2022/10/05 15:08:40;;;;;;;2.10;2.00;;;;;;;;;;5136710;27;20194;-65
2022/10/05 15:11:10;;;;;;;2.40;2.20;;;;;;;;;;5136944;27;20303;-65
2022/10/05 15:13:40;;;;;;;2.17;2.08;;;;;;;;;;5136823;27;20202;-65
2022/10/05 15:16:14;;;;;;;1.90;1.67;;;;;;;;;;5116733;28;20432;-65
2022/10/05 15:18:47;;;;;;;1.98;1.88;;;;;;;;;;5116177;28;20242;-65
2022/10/05 15:21:32;;;;;;;2.47;2.05;;;;;;;;;;5115756;28;20281;-65
2022/10/05 15:24:01;;;;;;;2.00;1.90;;;;;;;;;;5115336;28;20202;-65
2022/10/05 15:26:36;;;;;;;2.40;2.20;;;;;;;;;;5116771;27;20263;-65